sensor_id;sensor_type;location;lat;lon;timestamp;pressure;altitude;pressure_sealevel;temperature;humidity
39265;BME280;42646;51.910;7.724;2023-10-08T00:01:06;101493.69;;;18.44;96.96
39265;BME280;42646;51.910;7.724;2023-10-08T00:03:43;101488.63;;;18.41;96.75
39265;BME280;42646;51.910;7.724;2023-10-08T00:06:16;101504.13;;;18.39;97.26
39265;BME280;42646;51.910;7.724;2023-10-08T00:08:46;101495.22;;;18.38;97.43
39265;BME280;42646;51.910;7.724;2023-10-08T00:11:14;101492.66;;;18.37;97.57
39265;BME280;42646;51.910;7.724;2023-10-08T00:13:43;101500.75;;;18.37;97.20
39265;BME280;42646;51.910;7.724;2023-10-08T00:16:13;101519.78;;;18.35;97.65
39265;BME280;42646;51.910;7.724;2023-10-08T00:18:44;101510.88;;;18.35;97.23
39265;BME280;42646;51.910;7.724;2023-10-08T00:21:17;101517.25;;;18.34;97.68
39265;BME280;42646;51.910;7.724;2023-10-08T00:23:46;101525.34;;;18.34;97.37
39265;BME280;42646;51.910;7.724;2023-10-08T00:26:19;101527.19;;;18.33;97.89
39265;BME280;42646;51.910;7.724;2023-10-08T00:28:56;101537.28;;;18.31;97.89
39265;BME280;42646;51.910;7.724;2023-10-08T00:31:27;101536.97;;;18.34;97.86
39265;BME280;42646;51.910;7.724;2023-10-08T00:33:57;101547.75;;;18.34;97.44
39265;BME280;42646;51.910;7.724;2023-10-08T00:36:25;101552.59;;;18.31;98.23
39265;BME280;42646;51.910;7.724;2023-10-08T00:38:53;101545.53;;;18.30;98.40
39265;BME280;42646;51.910;7.724;2023-10-08T00:41:25;101546.38;;;18.30;98.57
39265;BME280;42646;51.910;7.724;2023-10-08T00:43:58;101539.97;;;18.31;98.47
39265;BME280;42646;51.910;7.724;2023-10-08T00:46:29;101539.84;;;18.33;98.56
39265;BME280;42646;51.910;7.724;2023-10-08T00:49:01;101526.84;;;18.28;98.99
39265;BME280;42646;51.910;7.724;2023-10-08T00:51:46;101525.19;;;18.27;98.75
39265;BME280;42646;51.910;7.724;2023-10-08T00:54:27;101541.50;;;18.26;99.39
39265;BME280;42646;51.910;7.724;2023-10-08T00:57:00;101552.78;;;18.29;98.85
39265;BME280;42646;51.910;7.724;2023-10-08T00:59:32;101564.56;;;18.28;99.25
39265;BME280;42646;51.910;7.724;2023-10-08T01:02:10;101559.19;;;18.28;99.53
39265;BME280;42646;51.910;7.724;2023-10-08T01:04:43;101567.09;;;18.30;99.59
39265;BME280;42646;51.910;7.724;2023-10-08T01:07:14;101569.13;;;18.28;99.55
39265;BME280;42646;51.910;7.724;2023-10-08T01:09:44;101566.78;;;18.33;99.59
39265;BME280;42646;51.910;7.724;2023-10-08T01:12:18;101561.69;;;18.30;99.49
39265;BME280;42646;51.910;7.724;2023-10-08T01:14:50;101560.03;;;18.29;100.00
39265;BME280;42646;51.910;7.724;2023-10-08T01:17:23;101567.44;;;18.35;99.64
39265;BME280;42646;51.910;7.724;2023-10-08T01:19:53;101583.25;;;18.30;100.00
39265;BME280;42646;51.910;7.724;2023-10-08T01:22:37;101575.19;;;18.30;100.00
39265;BME280;42646;51.910;7.724;2023-10-08T01:25:07;101561.53;;;18.31;100.00
39265;BME280;42646;51.910;7.724;2023-10-08T01:27:38;101572.16;;;18.33;100.00
39265;BME280;42646;51.910;7.724;2023-10-08T01:30:07;101570.63;;;18.30;100.00
39265;BME280;42646;51.910;7.724;2023-10-08T01:32:41;101569.28;;;18.34;100.00
39265;BME280;42646;51.910;7.724;2023-10-08T01:35:11;101574.84;;;18.33;100.00
39265;BME280;42646;51.910;7.724;2023-10-08T01:37:51;101583.59;;;18.35;100.00
39265;BME280;42646;51.910;7.724;2023-10-08T01:40:19;101569.13;;;18.36;100.00
39265;BME280;42646;51.910;7.724;2023-10-08T01:42:50;101578.03;;;18.36;100.00
39265;BME280;42646;51.910;7.724;2023-10-08T01:45:17;101590.50;;;18.37;100.00
39265;BME280;42646;51.910;7.724;2023-10-08T01:47:47;101596.72;;;18.38;100.00
39265;BME280;42646;51.910;7.724;2023-10-08T01:50:20;101596.91;;;18.36;100.00
39265;BME280;42646;51.910;7.724;2023-10-08T01:52:50;101590.19;;;18.40;100.00
39265;BME280;42646;51.910;7.724;2023-10-08T01:55:18;101569.47;;;18.41;100.00
39265;BME280;42646;51.910;7.724;2023-10-08T01:57:47;101570.31;;;18.41;100.00
39265;BME280;42646;51.910;7.724;2023-10-08T02:00:16;101552.47;;;18.40;100.00
39265;BME280;42646;51.910;7.724;2023-10-08T02:02:50;101561.56;;;18.39;100.00
39265;BME280;42646;51.910;7.724;2023-10-08T02:05:18;101540.84;;;18.40;100.00
39265;BME280;42646;51.910;7.724;2023-10-08T02:07:48;101541.84;;;18.39;100.00
39265;BME280;42646;51.910;7.724;2023-10-08T02:10:17;101537.44;;;18.38;100.00
39265;BME280;42646;51.910;7.724;2023-10-08T02:12:45;101502.44;;;18.38;100.00
39265;BME280;42646;51.910;7.724;2023-10-08T02:15:12;101539.47;;;18.36;100.00
39265;BME280;42646;51.910;7.724;2023-10-08T02:17:40;101542.34;;;18.34;100.00
39265;BME280;42646;51.910;7.724;2023-10-08T02:20:10;101521.13;;;18.31;100.00
39265;BME280;42646;51.910;7.724;2023-10-08T02:22:40;101529.38;;;18.30;100.00
39265;BME280;42646;51.910;7.724;2023-10-08T02:25:08;101539.50;;;18.28;100.00
39265;BME280;42646;51.910;7.724;2023-10-08T02:27:39;101555.81;;;18.26;100.00
39265;BME280;42646;51.910;7.724;2023-10-08T02:30:09;101596.38;;;18.25;100.00
39265;BME280;42646;51.910;7.724;2023-10-08T02:32:39;101605.47;;;18.24;100.00
39265;BME280;42646;51.910;7.724;2023-10-08T02:35:09;101580.56;;;18.22;100.00
39265;BME280;42646;51.910;7.724;2023-10-08T02:37:37;101561.84;;;18.20;100.00
39265;BME280;42646;51.910;7.724;2023-10-08T02:40:07;101561.19;;;18.18;100.00
39265;BME280;42646;51.910;7.724;2023-10-08T02:42:47;101561.19;;;18.18;100.00
39265;BME280;42646;51.910;7.724;2023-10-08T02:45:17;101568.25;;;18.19;100.00
39265;BME280;42646;51.910;7.724;2023-10-08T02:47:45;101580.03;;;18.10;100.00
39265;BME280;42646;51.910;7.724;2023-10-08T02:50:13;101622.88;;;17.95;100.00
39265;BME280;42646;51.910;7.724;2023-10-08T02:52:44;101643.72;;;17.85;100.00
39265;BME280;42646;51.910;7.724;2023-10-08T02:55:12;101625.63;;;17.69;100.00
39265;BME280;42646;51.910;7.724;2023-10-08T02:58:03;101640.66;;;17.54;100.00
39265;BME280;42646;51.910;7.724;2023-10-08T03:00:31;101675.56;;;17.38;100.00
39265;BME280;42646;51.910;7.724;2023-10-08T03:03:01;101619.63;;;17.23;100.00
39265;BME280;42646;51.910;7.724;2023-10-08T03:05:38;101626.81;;;17.15;100.00
39265;BME280;42646;51.910;7.724;2023-10-08T03:08:10;101646.28;;;17.08;100.00
39265;BME280;42646;51.910;7.724;2023-10-08T03:10:38;101671.38;;;16.99;100.00
39265;BME280;42646;51.910;7.724;2023-10-08T03:13:11;101665.09;;;16.91;100.00
39265;BME280;42646;51.910;7.724;2023-10-08T03:15:41;101657.66;;;16.85;100.00
39265;BME280;42646;51.910;7.724;2023-10-08T03:18:24;101668.66;;;16.73;100.00
39265;BME280;42646;51.910;7.724;2023-10-08T03:21:25;101670.53;;;16.63;100.00
39265;BME280;42646;51.910;7.724;2023-10-08T03:24:32;101641.03;;;16.53;100.00
39265;BME280;42646;51.910;7.724;2023-10-08T03:27:06;101683.66;;;16.48;100.00
39265;BME280;42646;51.910;7.724;2023-10-08T03:29:41;101664.06;;;16.38;100.00
39265;BME280;42646;51.910;7.724;2023-10-08T03:32:14;101667.19;;;16.34;100.00
39265;BME280;42646;51.910;7.724;2023-10-08T03:34:44;101651.00;;;16.25;100.00
39265;BME280;42646;51.910;7.724;2023-10-08T03:37:13;101678.59;;;16.18;100.00
39265;BME280;42646;51.910;7.724;2023-10-08T03:39:48;101663.06;;;16.12;100.00
39265;BME280;42646;51.910;7.724;2023-10-08T03:42:55;101641.19;;;16.07;100.00
39265;BME280;42646;51.910;7.724;2023-10-08T03:45:49;101622.63;;;15.95;100.00
39265;BME280;42646;51.910;7.724;2023-10-08T03:48:21;101680.03;;;15.85;100.00
39265;BME280;42646;51.910;7.724;2023-10-08T03:50:49;101691.78;;;15.74;100.00
39265;BME280;42646;51.910;7.724;2023-10-08T03:53:23;101737.56;;;15.63;100.00
39265;BME280;42646;51.910;7.724;2023-10-08T03:55:52;101700.97;;;15.52;100.00
39265;BME280;42646;51.910;7.724;2023-10-08T03:58:21;101730.22;;;15.45;100.00
39265;BME280;42646;51.910;7.724;2023-10-08T04:00:57;101707.50;;;15.40;100.00
39265;BME280;42646;51.910;7.724;2023-10-08T04:03:35;101715.28;;;15.33;100.00
39265;BME280;42646;51.910;7.724;2023-10-08T04:06:19;101655.03;;;15.28;100.00
39265;BME280;42646;51.910;7.724;2023-10-08T04:08:49;101657.44;;;15.21;100.00
39265;BME280;42646;51.910;7.724;2023-10-08T04:11:31;101655.19;;;15.16;100.00
39265;BME280;42646;51.910;7.724;2023-10-08T04:14:02;101696.28;;;15.07;100.00
39265;BME280;42646;51.910;7.724;2023-10-08T04:16:33;101710.34;;;15.00;100.00
39265;BME280;42646;51.910;7.724;2023-10-08T04:19:04;101694.72;;;14.95;100.00
39265;BME280;42646;51.910;7.724;2023-10-08T04:21:32;101719.25;;;14.90;100.00
39265;BME280;42646;51.910;7.724;2023-10-08T04:24:02;101710.94;;;14.84;100.00
39265;BME280;42646;51.910;7.724;2023-10-08T04:26:35;101702.63;;;14.77;100.00
39265;BME280;42646;51.910;7.724;2023-10-08T04:29:06;101705.72;;;14.73;100.00
39265;BME280;42646;51.910;7.724;2023-10-08T04:31:38;101721.50;;;14.66;100.00
39265;BME280;42646;51.910;7.724;2023-10-08T04:34:12;101748.94;;;14.58;100.00
39265;BME280;42646;51.910;7.724;2023-10-08T04:36:44;101744.03;;;14.54;100.00
39265;BME280;42646;51.910;7.724;2023-10-08T04:39:14;101731.88;;;14.50;100.00
39265;BME280;42646;51.910;7.724;2023-10-08T04:41:47;101732.03;;;14.48;100.00
39265;BME280;42646;51.910;7.724;2023-10-08T04:44:20;101736.78;;;14.44;100.00
39265;BME280;42646;51.910;7.724;2023-10-08T04:46:49;101749.59;;;14.41;100.00
39265;BME280;42646;51.910;7.724;2023-10-08T04:49:19;101753.38;;;14.38;100.00
39265;BME280;42646;51.910;7.724;2023-10-08T04:51:57;101745.50;;;14.37;100.00
39265;BME280;42646;51.910;7.724;2023-10-08T04:54:25;101755.50;;;14.35;100.00
39265;BME280;42646;51.910;7.724;2023-10-08T04:56:57;101773.38;;;14.34;100.00
39265;BME280;42646;51.910;7.724;2023-10-08T04:59:26;101783.38;;;14.32;100.00
39265;BME280;42646;51.910;7.724;2023-10-08T05:02:03;101780.84;;;14.31;100.00
39265;BME280;42646;51.910;7.724;2023-10-08T05:04:47;101786.34;;;14.29;100.00
39265;BME280;42646;51.910;7.724;2023-10-08T05:07:46;101804.34;;;14.27;100.00
39265;BME280;42646;51.910;7.724;2023-10-08T05:10:29;101814.34;;;14.25;100.00
39265;BME280;42646;51.910;7.724;2023-10-08T05:13:27;101809.97;;;14.24;100.00
39265;BME280;42646;51.910;7.724;2023-10-08T05:15:59;101818.25;;;14.21;100.00
39265;BME280;42646;51.910;7.724;2023-10-08T05:18:40;101811.22;;;14.20;100.00
39265;BME280;42646;51.910;7.724;2023-10-08T05:21:36;101820.22;;;14.19;100.00
39265;BME280;42646;51.910;7.724;2023-10-08T05:24:19;101801.63;;;14.18;100.00
39265;BME280;42646;51.910;7.724;2023-10-08T05:26:54;101745.53;;;14.16;100.00
39265;BME280;42646;51.910;7.724;2023-10-08T05:29:47;101752.88;;;14.14;100.00
39265;BME280;42646;51.910;7.724;2023-10-08T05:32:39;101759.34;;;14.11;100.00
39265;BME280;42646;51.910;7.724;2023-10-08T05:35:35;101788.06;;;14.09;100.00
39265;BME280;42646;51.910;7.724;2023-10-08T05:38:17;101787.50;;;14.06;100.00
39265;BME280;42646;51.910;7.724;2023-10-08T05:41:10;101788.34;;;14.06;100.00
39265;BME280;42646;51.910;7.724;2023-10-08T05:44:06;101790.28;;;14.04;100.00
39265;BME280;42646;51.910;7.724;2023-10-08T05:47:02;101803.81;;;14.03;100.00
39265;BME280;42646;51.910;7.724;2023-10-08T05:49:56;101816.56;;;13.99;100.00
39265;BME280;42646;51.910;7.724;2023-10-08T05:52:56;101825.59;;;13.98;100.00
39265;BME280;42646;51.910;7.724;2023-10-08T05:55:42;101808.84;;;13.96;100.00
39265;BME280;42646;51.910;7.724;2023-10-08T05:58:14;101811.38;;;13.98;100.00
39265;BME280;42646;51.910;7.724;2023-10-08T06:00:51;101831.22;;;13.95;100.00
39265;BME280;42646;51.910;7.724;2023-10-08T06:03:36;101838.41;;;13.95;100.00
39265;BME280;42646;51.910;7.724;2023-10-08T06:06:16;101850.94;;;13.94;100.00
39265;BME280;42646;51.910;7.724;2023-10-08T06:08:54;101854.69;;;13.92;100.00
39265;BME280;42646;51.910;7.724;2023-10-08T06:11:48;101858.50;;;13.89;100.00
39265;BME280;42646;51.910;7.724;2023-10-08T06:14:34;101880.03;;;13.87;100.00
39265;BME280;42646;51.910;7.724;2023-10-08T06:17:35;101880.16;;;13.86;100.00
39265;BME280;42646;51.910;7.724;2023-10-08T06:20:25;101890.13;;;13.84;100.00
39265;BME280;42646;51.910;7.724;2023-10-08T06:22:54;101885.78;;;13.83;100.00
39265;BME280;42646;51.910;7.724;2023-10-08T06:25:29;101898.53;;;13.79;100.00
39265;BME280;42646;51.910;7.724;2023-10-08T06:28:22;101908.53;;;13.77;100.00
39265;BME280;42646;51.910;7.724;2023-10-08T06:30:52;101916.56;;;13.77;100.00
39265;BME280;42646;51.910;7.724;2023-10-08T06:33:23;101918.63;;;13.74;100.00
39265;BME280;42646;51.910;7.724;2023-10-08T06:35:57;101929.47;;;13.72;100.00
39265;BME280;42646;51.910;7.724;2023-10-08T06:38:33;101932.28;;;13.71;100.00
39265;BME280;42646;51.910;7.724;2023-10-08T06:41:04;101919.97;;;13.68;100.00
39265;BME280;42646;51.910;7.724;2023-10-08T06:43:37;101922.94;;;13.65;100.00
39265;BME280;42646;51.910;7.724;2023-10-08T06:46:31;101927.53;;;13.63;100.00
39265;BME280;42646;51.910;7.724;2023-10-08T06:49:02;101931.47;;;13.59;100.00
39265;BME280;42646;51.910;7.724;2023-10-08T06:51:32;101950.28;;;13.57;100.00
39265;BME280;42646;51.910;7.724;2023-10-08T06:54:01;101956.59;;;13.56;100.00
39265;BME280;42646;51.910;7.724;2023-10-08T06:56:31;101957.72;;;13.54;100.00
39265;BME280;42646;51.910;7.724;2023-10-08T06:59:01;101947.16;;;13.52;100.00
39265;BME280;42646;51.910;7.724;2023-10-08T07:01:29;101943.59;;;13.52;100.00
39265;BME280;42646;51.910;7.724;2023-10-08T07:04:06;101949.34;;;13.47;100.00
39265;BME280;42646;51.910;7.724;2023-10-08T07:06:39;101965.50;;;13.46;100.00
39265;BME280;42646;51.910;7.724;2023-10-08T07:09:07;101963.81;;;13.45;100.00
39265;BME280;42646;51.910;7.724;2023-10-08T07:11:50;101961.25;;;13.43;100.00
39265;BME280;42646;51.910;7.724;2023-10-08T07:14:26;101956.91;;;13.42;100.00
39265;BME280;42646;51.910;7.724;2023-10-08T07:16:56;101948.16;;;13.40;100.00
39265;BME280;42646;51.910;7.724;2023-10-08T07:19:27;101953.75;;;13.37;100.00
39265;BME280;42646;51.910;7.724;2023-10-08T07:22:04;101945.13;;;13.33;100.00
39265;BME280;42646;51.910;7.724;2023-10-08T07:24:37;101941.72;;;13.31;100.00
39265;BME280;42646;51.910;7.724;2023-10-08T07:27:07;101940.16;;;13.29;100.00
39265;BME280;42646;51.910;7.724;2023-10-08T07:29:36;101928.72;;;13.27;100.00
39265;BME280;42646;51.910;7.724;2023-10-08T07:32:04;101947.56;;;13.25;100.00
39265;BME280;42646;51.910;7.724;2023-10-08T07:34:38;101963.00;;;13.22;100.00
39265;BME280;42646;51.910;7.724;2023-10-08T07:37:06;101963.00;;;13.22;100.00
39265;BME280;42646;51.910;7.724;2023-10-08T07:39:39;101966.63;;;13.21;100.00
39265;BME280;42646;51.910;7.724;2023-10-08T07:42:14;101966.88;;;13.18;100.00
39265;BME280;42646;51.910;7.724;2023-10-08T07:44:42;101971.38;;;13.17;100.00
39265;BME280;42646;51.910;7.724;2023-10-08T07:47:11;101981.31;;;13.15;100.00
39265;BME280;42646;51.910;7.724;2023-10-08T07:49:41;101998.44;;;13.13;100.00
39265;BME280;42646;51.910;7.724;2023-10-08T07:52:11;101996.75;;;13.12;100.00
39265;BME280;42646;51.910;7.724;2023-10-08T07:54:43;101981.69;;;13.10;100.00
39265;BME280;42646;51.910;7.724;2023-10-08T07:57:11;101968.34;;;13.10;100.00
39265;BME280;42646;51.910;7.724;2023-10-08T07:59:45;101970.13;;;13.10;100.00
39265;BME280;42646;51.910;7.724;2023-10-08T08:02:16;101981.06;;;13.07;100.00
39265;BME280;42646;51.910;7.724;2023-10-08T08:04:50;101991.91;;;13.05;100.00
39265;BME280;42646;51.910;7.724;2023-10-08T08:07:20;101978.53;;;13.05;100.00
39265;BME280;42646;51.910;7.724;2023-10-08T08:09:50;101986.56;;;13.05;100.00
39265;BME280;42646;51.910;7.724;2023-10-08T08:12:20;101993.59;;;13.06;100.00
39265;BME280;42646;51.910;7.724;2023-10-08T08:14:50;102003.28;;;13.07;100.00
39265;BME280;42646;51.910;7.724;2023-10-08T08:17:21;102026.38;;;13.08;100.00
39265;BME280;42646;51.910;7.724;2023-10-08T08:19:51;102012.03;;;13.09;100.00
39265;BME280;42646;51.910;7.724;2023-10-08T08:22:21;102021.78;;;13.10;100.00
39265;BME280;42646;51.910;7.724;2023-10-08T08:24:53;102009.97;;;13.13;100.00
39265;BME280;42646;51.910;7.724;2023-10-08T08:27:24;102045.56;;;13.14;100.00
39265;BME280;42646;51.910;7.724;2023-10-08T08:30:01;102041.91;;;13.15;100.00
39265;BME280;42646;51.910;7.724;2023-10-08T08:32:40;102027.47;;;13.17;100.00
39265;BME280;42646;51.910;7.724;2023-10-08T08:35:11;102027.34;;;13.19;100.00
39265;BME280;42646;51.910;7.724;2023-10-08T08:37:43;102031.63;;;13.21;100.00
39265;BME280;42646;51.910;7.724;2023-10-08T08:40:13;102049.38;;;13.22;100.00
39265;BME280;42646;51.910;7.724;2023-10-08T08:42:45;102052.91;;;13.23;100.00
39265;BME280;42646;51.910;7.724;2023-10-08T08:45:18;102006.38;;;13.25;100.00
39265;BME280;42646;51.910;7.724;2023-10-08T08:47:47;101991.44;;;13.23;100.00
39265;BME280;42646;51.910;7.724;2023-10-08T08:50:15;102027.13;;;13.22;100.00
39265;BME280;42646;51.910;7.724;2023-10-08T08:52:49;102025.44;;;13.21;100.00
39265;BME280;42646;51.910;7.724;2023-10-08T08:55:18;102039.53;;;13.23;100.00
39265;BME280;42646;51.910;7.724;2023-10-08T08:58:10;102062.63;;;13.24;100.00
39265;BME280;42646;51.910;7.724;2023-10-08T09:01:07;102064.19;;;13.26;100.00
39265;BME280;42646;51.910;7.724;2023-10-08T09:03:39;102072.06;;;13.28;100.00
39265;BME280;42646;51.910;7.724;2023-10-08T09:06:09;102060.44;;;13.29;100.00
39265;BME280;42646;51.910;7.724;2023-10-08T09:08:38;102057.50;;;13.32;100.00
39265;BME280;42646;51.910;7.724;2023-10-08T09:11:16;102072.56;;;13.33;100.00
39265;BME280;42646;51.910;7.724;2023-10-08T09:13:44;102072.34;;;13.36;100.00
39265;BME280;42646;51.910;7.724;2023-10-08T09:16:14;102072.34;;;13.36;100.00
39265;BME280;42646;51.910;7.724;2023-10-08T09:18:47;102056.03;;;13.39;100.00
39265;BME280;42646;51.910;7.724;2023-10-08T09:21:18;102040.75;;;13.41;100.00
39265;BME280;42646;51.910;7.724;2023-10-08T09:23:50;102040.75;;;13.41;100.00
39265;BME280;42646;51.910;7.724;2023-10-08T09:26:18;102029.78;;;13.44;100.00
39265;BME280;42646;51.910;7.724;2023-10-08T09:28:48;102024.31;;;13.46;100.00
39265;BME280;42646;51.910;7.724;2023-10-08T09:31:18;102024.78;;;13.51;100.00
39265;BME280;42646;51.910;7.724;2023-10-08T09:33:53;102032.44;;;13.55;100.00
39265;BME280;42646;51.910;7.724;2023-10-08T09:36:22;102033.06;;;13.59;100.00
39265;BME280;42646;51.910;7.724;2023-10-08T09:39:00;102058.47;;;13.65;100.00
39265;BME280;42646;51.910;7.724;2023-10-08T09:41:32;102066.22;;;13.68;100.00
39265;BME280;42646;51.910;7.724;2023-10-08T09:44:00;102061.63;;;13.70;100.00
39265;BME280;42646;51.910;7.724;2023-10-08T09:46:33;102070.94;;;13.75;100.00
39265;BME280;42646;51.910;7.724;2023-10-08T09:49:05;102073.25;;;13.80;100.00
39265;BME280;42646;51.910;7.724;2023-10-08T09:51:39;102084.44;;;13.85;100.00
39265;BME280;42646;51.910;7.724;2023-10-08T09:54:10;102085.91;;;13.89;100.00
39265;BME280;42646;51.910;7.724;2023-10-08T09:56:42;102083.94;;;13.91;100.00
39265;BME280;42646;51.910;7.724;2023-10-08T09:59:11;102091.81;;;13.93;100.00
39265;BME280;42646;51.910;7.724;2023-10-08T10:01:44;102098.63;;;13.97;100.00
39265;BME280;42646;51.910;7.724;2023-10-08T10:04:22;102106.53;;;13.98;100.00
39265;BME280;42646;51.910;7.724;2023-10-08T10:06:54;102098.13;;;14.03;100.00
39265;BME280;42646;51.910;7.724;2023-10-08T10:09:25;102085.22;;;14.08;100.00
39265;BME280;42646;51.910;7.724;2023-10-08T10:11:54;102083.03;;;14.13;100.00
39265;BME280;42646;51.910;7.724;2023-10-08T10:14:24;102079.09;;;14.17;100.00
39265;BME280;42646;51.910;7.724;2023-10-08T10:17:12;102090.19;;;14.24;100.00
39265;BME280;42646;51.910;7.724;2023-10-08T10:20:01;102091.75;;;14.26;100.00
39265;BME280;42646;51.910;7.724;2023-10-08T10:22:30;102095.97;;;14.29;100.00
39265;BME280;42646;51.910;7.724;2023-10-08T10:25:01;102095.88;;;14.30;100.00
39265;BME280;42646;51.910;7.724;2023-10-08T10:27:38;102078.81;;;14.31;100.00
39265;BME280;42646;51.910;7.724;2023-10-08T10:30:07;102078.44;;;14.36;100.00
39265;BME280;42646;51.910;7.724;2023-10-08T10:32:38;102082.69;;;14.38;100.00
39265;BME280;42646;51.910;7.724;2023-10-08T10:35:07;102085.00;;;14.43;100.00
39265;BME280;42646;51.910;7.724;2023-10-08T10:37:39;102086.47;;;14.47;100.00
39265;BME280;42646;51.910;7.724;2023-10-08T10:40:10;102081.81;;;14.49;100.00
39265;BME280;42646;51.910;7.724;2023-10-08T10:42:39;102076.19;;;14.52;100.00
39265;BME280;42646;51.910;7.724;2023-10-08T10:45:13;102072.56;;;14.53;100.00
39265;BME280;42646;51.910;7.724;2023-10-08T10:48:03;102064.53;;;14.53;100.00
39265;BME280;42646;51.910;7.724;2023-10-08T10:50:41;102065.38;;;14.54;100.00
39265;BME280;42646;51.910;7.724;2023-10-08T10:53:17;102077.50;;;14.58;100.00
39265;BME280;42646;51.910;7.724;2023-10-08T10:55:46;102068.53;;;14.59;100.00
39265;BME280;42646;51.910;7.724;2023-10-08T10:58:25;102081.78;;;14.60;100.00
39265;BME280;42646;51.910;7.724;2023-10-08T11:00:56;102091.38;;;14.63;100.00
39265;BME280;42646;51.910;7.724;2023-10-08T11:03:26;102088.56;;;14.64;100.00
39265;BME280;42646;51.910;7.724;2023-10-08T11:05:56;102088.31;;;14.67;100.00
39265;BME280;42646;51.910;7.724;2023-10-08T11:08:26;102083.56;;;14.71;100.00
39265;BME280;42646;51.910;7.724;2023-10-08T11:11:03;102077.91;;;14.74;100.00
39265;BME280;42646;51.910;7.724;2023-10-08T11:13:34;102083.13;;;14.76;100.00
39265;BME280;42646;51.910;7.724;2023-10-08T11:16:07;102081.19;;;14.78;100.00
39265;BME280;42646;51.910;7.724;2023-10-08T11:18:44;102079.09;;;14.81;100.00
39265;BME280;42646;51.910;7.724;2023-10-08T11:21:18;102068.38;;;14.81;100.00
39265;BME280;42646;51.910;7.724;2023-10-08T11:23:51;102071.19;;;14.80;100.00
39265;BME280;42646;51.910;7.724;2023-10-08T11:26:26;102066.81;;;14.79;100.00
39265;BME280;42646;51.910;7.724;2023-10-08T11:29:06;102063.44;;;14.77;100.00
39265;BME280;42646;51.910;7.724;2023-10-08T11:31:42;102066.97;;;14.77;100.00
39265;BME280;42646;51.910;7.724;2023-10-08T11:34:13;102072.19;;;14.79;99.58
39265;BME280;42646;51.910;7.724;2023-10-08T11:36:41;102059.63;;;14.79;99.11
39265;BME280;42646;51.910;7.724;2023-10-08T11:39:20;102063.16;;;14.80;98.61
39265;BME280;42646;51.910;7.724;2023-10-08T11:41:57;102060.34;;;14.81;98.52
39265;BME280;42646;51.910;7.724;2023-10-08T11:44:30;102061.91;;;14.84;98.61
39265;BME280;42646;51.910;7.724;2023-10-08T11:47:03;102049.38;;;14.84;98.05
39265;BME280;42646;51.910;7.724;2023-10-08T11:49:41;102049.38;;;14.84;97.36
39265;BME280;42646;51.910;7.724;2023-10-08T11:52:20;102047.53;;;14.85;97.52
39265;BME280;42646;51.910;7.724;2023-10-08T11:54:49;102053.75;;;14.85;97.67
39265;BME280;42646;51.910;7.724;2023-10-08T11:57:21;102060.41;;;14.91;97.95
39265;BME280;42646;51.910;7.724;2023-10-08T11:59:50;102057.44;;;14.94;97.55
39265;BME280;42646;51.910;7.724;2023-10-08T12:02:21;102059.28;;;14.93;97.03
39265;BME280;42646;51.910;7.724;2023-10-08T12:04:50;102059.03;;;14.96;96.92
39265;BME280;42646;51.910;7.724;2023-10-08T12:07:18;102048.16;;;14.98;96.91
39265;BME280;42646;51.910;7.724;2023-10-08T12:09:47;102041.81;;;14.99;96.44
39265;BME280;42646;51.910;7.724;2023-10-08T12:12:16;102046.22;;;15.00;95.00
39265;BME280;42646;51.910;7.724;2023-10-08T12:14:49;102042.56;;;15.01;92.79
39265;BME280;42646;51.910;7.724;2023-10-08T12:17:21;102036.47;;;14.99;91.50
39265;BME280;42646;51.910;7.724;2023-10-08T12:19:58;102033.78;;;14.99;90.16
39265;BME280;42646;51.910;7.724;2023-10-08T12:22:42;102034.63;;;15.00;89.52
39265;BME280;42646;51.910;7.724;2023-10-08T12:25:10;102025.63;;;15.01;89.31
39265;BME280;42646;51.910;7.724;2023-10-08T12:27:41;102018.28;;;15.03;89.40
39265;BME280;42646;51.910;7.724;2023-10-08T12:30:10;102013.78;;;15.03;88.12
39265;BME280;42646;51.910;7.724;2023-10-08T12:32:38;102014.91;;;15.01;86.86
39265;BME280;42646;51.910;7.724;2023-10-08T12:35:10;102015.75;;;15.01;86.01
39265;BME280;42646;51.910;7.724;2023-10-08T12:37:40;102013.06;;;15.01;85.01
39265;BME280;42646;51.910;7.724;2023-10-08T12:40:11;102015.03;;;14.99;85.04
39265;BME280;42646;51.910;7.724;2023-10-08T12:42:51;102009.81;;;14.98;84.32
39265;BME280;42646;51.910;7.724;2023-10-08T12:45:20;101995.69;;;14.95;84.62
39265;BME280;42646;51.910;7.724;2023-10-08T12:47:49;101984.25;;;14.93;84.35
39265;BME280;42646;51.910;7.724;2023-10-08T12:50:19;101971.84;;;14.92;84.55
39265;BME280;42646;51.910;7.724;2023-10-08T12:52:56;101968.31;;;14.92;84.76
39265;BME280;42646;51.910;7.724;2023-10-08T12:55:24;101962.09;;;14.91;84.72
39265;BME280;42646;51.910;7.724;2023-10-08T12:57:53;101959.56;;;14.90;85.31
39265;BME280;42646;51.910;7.724;2023-10-08T13:00:30;101961.13;;;14.92;85.89
39265;BME280;42646;51.910;7.724;2023-10-08T13:02:58;101961.84;;;14.94;85.98
39265;BME280;42646;51.910;7.724;2023-10-08T13:05:29;101959.16;;;14.94;85.14
39265;BME280;42646;51.910;7.724;2023-10-08T13:07:57;101953.06;;;14.92;84.39
39265;BME280;42646;51.910;7.724;2023-10-08T13:10:29;101951.13;;;14.94;84.30
39265;BME280;42646;51.910;7.724;2023-10-08T13:12:58;101951.97;;;14.95;83.38
39265;BME280;42646;51.910;7.724;2023-10-08T13:15:26;101947.47;;;14.95;83.85
39265;BME280;42646;51.910;7.724;2023-10-08T13:17:53;101960.72;;;14.97;83.66